createdAt,value
2019-05-07T00:01:14.401Z,15.50
2019-05-07T00:02:24.014Z,15.20
2019-05-07T00:03:29.680Z,15.55
2019-05-07T00:04:35.269Z,15.18
2019-05-07T00:05:42.608Z,15.03
2019-05-07T00:06:47.025Z,15.38
2019-05-07T00:07:52.153Z,16.02
2019-05-07T00:08:57.515Z,14.20
2019-05-07T00:10:03.359Z,15.55
2019-05-07T00:11:08.842Z,15.03
2019-05-07T00:12:14.111Z,16.57
2019-05-07T00:13:19.378Z,15.40
2019-05-07T00:14:24.008Z,15.32
2019-05-07T00:15:28.704Z,15.70
2019-05-07T00:16:33.474Z,15.72
2019-05-07T00:17:38.817Z,16.00
2019-05-07T00:18:44.096Z,16.15
2019-05-07T00:19:48.803Z,16.02
2019-05-07T00:20:54.433Z,17.02
2019-05-07T00:21:59.468Z,16.12
2019-05-07T00:23:04.026Z,15.95
2019-05-07T00:24:13.183Z,16.12
2019-05-07T00:25:17.315Z,16.05
2019-05-07T00:26:22.648Z,15.50
2019-05-07T00:27:27.715Z,16.05
2019-05-07T00:28:32.662Z,16.35
2019-05-07T00:29:37.416Z,17.85
2019-05-07T00:30:45.316Z,17.45
2019-05-07T00:31:52.071Z,16.52
2019-05-07T00:32:57.518Z,16.42
2019-05-07T00:34:02.886Z,17.25
2019-05-07T00:35:09.320Z,16.85
2019-05-07T00:36:32.922Z,17.37
2019-05-07T00:37:46.394Z,16.82
2019-05-07T00:38:54.752Z,16.40
2019-05-07T00:40:32.124Z,15.83
2019-05-07T00:41:43.602Z,16.27
2019-05-07T00:43:05.952Z,16.05
2019-05-07T00:44:13.449Z,16.35
2019-05-07T00:45:25.924Z,16.42
2019-05-07T00:46:32.470Z,15.88
2019-05-07T00:47:37.243Z,16.32
2019-05-07T00:48:42.434Z,16.95
2019-05-07T00:49:47.407Z,16.90
2019-05-07T00:50:56.024Z,15.23
2019-05-07T00:52:02.858Z,16.85
2019-05-07T00:53:08.326Z,16.07
2019-05-07T00:54:13.613Z,16.30
2019-05-07T00:55:18.669Z,17.75
2019-05-07T00:56:23.691Z,16.15
2019-05-07T00:57:28.706Z,15.48
2019-05-07T00:58:33.770Z,16.82
2019-05-07T00:59:38.918Z,15.95
2019-05-07T01:00:43.581Z,16.75
2019-05-07T01:01:48.605Z,17.20
2019-05-07T01:02:53.874Z,16.05
2019-05-07T01:03:58.896Z,16.62
2019-05-07T01:05:03.913Z,16.85
2019-05-07T01:06:08.604Z,16.35
2019-05-07T01:07:13.298Z,17.02
2019-05-07T01:08:18.296Z,16.05
2019-05-07T01:09:23.505Z,16.75
2019-05-07T01:10:28.836Z,17.02
2019-05-07T01:11:33.753Z,15.80
2019-05-07T01:12:38.740Z,15.43
2019-05-07T01:13:43.617Z,14.10
2019-05-07T01:14:48.695Z,15.18
2019-05-07T01:15:54.087Z,14.20
2019-05-07T01:16:58.906Z,15.05
2019-05-07T01:18:03.915Z,15.85
2019-05-07T01:19:09.240Z,15.83
2019-05-07T01:20:15.046Z,15.13
2019-05-07T01:21:19.836Z,14.65
2019-05-07T01:22:24.822Z,15.58
2019-05-07T01:23:29.581Z,15.40
2019-05-07T01:24:35.075Z,15.53
2019-05-07T01:25:42.829Z,15.13
2019-05-07T01:26:47.375Z,14.83
2019-05-07T01:27:53.342Z,15.98
2019-05-07T01:29:02.817Z,15.30
2019-05-07T01:30:07.856Z,15.58
2019-05-07T01:31:12.705Z,15.03
2019-05-07T01:32:29.722Z,14.30
2019-05-07T01:33:47.002Z,14.20
2019-05-07T01:34:58.502Z,14.75
2019-05-07T01:36:13.252Z,14.68
2019-05-07T01:37:18.365Z,14.28
2019-05-07T01:38:23.473Z,14.80
2019-05-07T01:39:28.256Z,14.60
2019-05-07T01:40:33.102Z,15.48
2019-05-07T01:41:37.934Z,15.83
2019-05-07T01:42:42.886Z,15.70
2019-05-07T01:43:48.234Z,15.95
2019-05-07T01:44:53.277Z,14.85
2019-05-07T01:45:58.855Z,15.55
2019-05-07T01:47:04.091Z,15.40
2019-05-07T01:48:09.393Z,15.95
2019-05-07T01:49:14.696Z,14.93
2019-05-07T01:50:20.076Z,15.58
2019-05-07T01:51:25.517Z,15.53
2019-05-07T01:52:30.089Z,16.48
2019-05-07T01:53:34.930Z,16.73
2019-05-07T01:54:39.828Z,15.70
2019-05-07T01:55:44.646Z,16.55
2019-05-07T01:56:52.173Z,15.88
2019-05-07T01:57:57.058Z,16.75
2019-05-07T01:59:02.555Z,15.60
2019-05-07T02:00:07.804Z,16.15
2019-05-07T02:01:13.189Z,16.17
2019-05-07T02:02:27.296Z,16.30
2019-05-07T02:03:44.729Z,15.75
2019-05-07T02:05:03.218Z,16.02
2019-05-07T02:06:18.740Z,15.55
2019-05-07T02:07:33.554Z,16.20
2019-05-07T02:08:53.651Z,15.95
2019-05-07T02:10:22.620Z,16.17
2019-05-07T02:11:32.887Z,16.50
2019-05-07T02:12:39.042Z,16.77
2019-05-07T02:13:44.629Z,17.00
2019-05-07T02:14:49.938Z,17.35
2019-05-07T02:16:00.438Z,16.90
2019-05-07T02:17:02.953Z,16.17
2019-05-07T02:18:07.705Z,17.32
2019-05-07T02:19:13.023Z,16.77
2019-05-07T02:20:18.388Z,17.12
2019-05-07T02:21:23.701Z,17.52
2019-05-07T02:22:28.685Z,16.80
2019-05-07T02:23:33.498Z,17.12
2019-05-07T02:24:39.430Z,17.27
2019-05-07T02:25:44.991Z,17.42
2019-05-07T02:26:52.027Z,17.77
2019-05-07T02:27:57.117Z,17.10
2019-05-07T02:29:02.723Z,17.92
2019-05-07T02:30:07.735Z,17.25
2019-05-07T02:31:15.006Z,16.87
2019-05-07T02:32:19.804Z,17.17
2019-05-07T02:33:24.810Z,16.55
2019-05-07T02:34:29.791Z,16.55
2019-05-07T02:35:35.074Z,17.65
2019-05-07T02:36:43.382Z,17.67
2019-05-07T02:37:56.555Z,16.85
2019-05-07T02:39:17.919Z,16.67
2019-05-07T02:40:47.308Z,17.10
2019-05-07T02:41:54.182Z,17.60
2019-05-07T02:43:02.691Z,17.45
2019-05-07T02:44:06.104Z,17.25
2019-05-07T02:45:33.463Z,16.90
2019-05-07T02:46:55.789Z,17.17
2019-05-07T02:48:03.436Z,16.55
2019-05-07T02:49:35.608Z,16.90
2019-05-07T02:50:47.774Z,17.02
2019-05-07T02:51:57.491Z,16.80
2019-05-07T02:53:07.377Z,18.27
2019-05-07T02:54:18.593Z,17.62
2019-05-07T02:55:28.494Z,18.62
2019-05-07T02:56:33.786Z,18.02
2019-05-07T02:57:39.148Z,17.95
2019-05-07T02:58:44.572Z,18.37
2019-05-07T02:59:49.516Z,17.57
2019-05-07T03:00:54.917Z,17.57
2019-05-07T03:01:59.662Z,17.95
2019-05-07T03:03:04.769Z,17.30
2019-05-07T03:04:12.695Z,17.60
2019-05-07T03:05:16.569Z,18.10
2019-05-07T03:06:23.326Z,17.62
2019-05-07T03:07:28.343Z,19.02
2019-05-07T03:08:33.606Z,17.98
2019-05-07T03:09:38.759Z,18.98
2019-05-07T03:10:43.894Z,19.20
2019-05-07T03:11:48.569Z,18.55
2019-05-07T03:12:54.031Z,18.52
2019-05-07T03:13:58.774Z,19.75
2019-05-07T03:15:04.701Z,18.80
2019-05-07T03:16:12.817Z,19.52
2019-05-07T03:17:16.940Z,18.57
2019-05-07T03:18:23.244Z,19.00
2019-05-07T03:19:28.999Z,18.70
2019-05-07T03:20:53.922Z,18.62
2019-05-07T03:21:58.970Z,18.85
2019-05-07T03:23:04.296Z,17.98
2019-05-07T03:24:17.388Z,17.32
2019-05-07T03:25:26.157Z,18.12
2019-05-07T03:26:34.895Z,18.05
2019-05-07T03:27:42.907Z,18.95
2019-05-07T03:29:03.627Z,19.12
2019-05-07T03:30:35.936Z,19.07
2019-05-07T03:31:55.512Z,19.35
2019-05-07T03:33:07.069Z,18.80
2019-05-07T03:34:17.463Z,19.50
2019-05-07T03:35:37.253Z,20.52
2019-05-07T03:36:47.730Z,18.98
2019-05-07T03:37:54.387Z,20.40
2019-05-07T03:38:57.910Z,20.15
2019-05-07T03:40:04.228Z,19.25
2019-05-07T03:41:09.102Z,19.67
2019-05-07T03:42:14.502Z,21.25
2019-05-07T03:43:22.657Z,20.10
2019-05-07T03:44:45.312Z,20.55
2019-05-07T03:46:07.709Z,19.05
2019-05-07T03:47:17.533Z,19.40
2019-05-07T03:48:24.270Z,18.92
2019-05-07T03:49:33.845Z,20.37
2019-05-07T03:50:37.888Z,20.45
2019-05-07T03:51:44.249Z,19.65
2019-05-07T03:52:49.249Z,20.92
2019-05-07T03:53:54.208Z,20.52
2019-05-07T03:54:59.582Z,21.33
2019-05-07T03:56:04.889Z,21.23
2019-05-07T03:57:11.685Z,20.97
2019-05-07T03:58:16.990Z,20.48
2019-05-07T03:59:23.086Z,21.93
2019-05-07T04:00:33.277Z,20.05
2019-05-07T04:01:38.243Z,22.00
2019-05-07T04:02:43.948Z,21.57
2019-05-07T04:03:49.558Z,21.42
2019-05-07T04:04:54.255Z,21.00
2019-05-07T04:05:59.049Z,22.42
2019-05-07T04:07:03.843Z,22.25
2019-05-07T04:08:09.084Z,22.58
2019-05-07T04:09:13.705Z,23.15
2019-05-07T04:10:18.429Z,22.62
2019-05-07T04:11:23.545Z,23.22
2019-05-07T04:12:28.875Z,22.65
2019-05-07T04:13:34.025Z,23.32
2019-05-07T04:14:38.789Z,22.80
2019-05-07T04:15:44.431Z,21.70
2019-05-07T04:16:49.455Z,22.07
2019-05-07T04:17:54.184Z,20.95
2019-05-07T04:18:59.257Z,20.72
2019-05-07T04:20:04.673Z,22.27
2019-05-07T04:21:10.132Z,22.30
2019-05-07T04:22:15.023Z,21.75
2019-05-07T04:23:22.963Z,20.82
2019-05-07T04:24:42.678Z,20.92
2019-05-07T04:26:05.680Z,22.13
2019-05-07T04:27:33.972Z,21.73
2019-05-07T04:28:58.132Z,20.85
2019-05-07T04:30:03.972Z,21.40
2019-05-07T04:31:09.054Z,22.27
2019-05-07T04:32:14.492Z,22.62
2019-05-07T04:33:23.467Z,21.97
2019-05-07T04:34:44.840Z,21.68
2019-05-07T04:35:55.346Z,21.15
2019-05-07T04:37:03.279Z,21.93
2019-05-07T04:38:07.524Z,23.50
2019-05-07T04:39:13.440Z,23.60
2019-05-07T04:40:18.314Z,23.05
2019-05-07T04:41:23.722Z,23.02
2019-05-07T04:42:28.924Z,22.85
2019-05-07T04:43:33.942Z,23.87
2019-05-07T04:44:38.733Z,24.77
2019-05-07T04:45:43.795Z,24.47
2019-05-07T04:46:48.795Z,25.00
2019-05-07T04:47:54.072Z,24.45
2019-05-07T04:48:59.573Z,24.27
2019-05-07T04:50:04.908Z,23.07
2019-05-07T04:51:12.682Z,24.95
2019-05-07T04:52:27.355Z,24.87
2019-05-07T04:53:32.935Z,24.12
2019-05-07T04:54:37.886Z,24.60
2019-05-07T04:55:43.278Z,25.62
2019-05-07T04:56:48.529Z,25.17
2019-05-07T04:57:53.564Z,24.85
2019-05-07T04:58:58.554Z,25.48
2019-05-07T05:00:03.810Z,26.62
2019-05-07T05:01:13.594Z,24.60
2019-05-07T05:02:22.877Z,25.10
2019-05-07T05:03:28.742Z,24.25
2019-05-07T05:04:34.753Z,25.08
2019-05-07T05:05:43.259Z,23.83
2019-05-07T05:06:47.577Z,24.57
2019-05-07T05:07:53.332Z,23.55
2019-05-07T05:08:58.701Z,24.15
2019-05-07T05:10:03.447Z,24.80
2019-05-07T05:11:08.831Z,23.92
2019-05-07T05:12:13.323Z,24.43
2019-05-07T05:13:18.245Z,24.95
2019-05-07T05:14:23.106Z,24.05
2019-05-07T05:15:28.653Z,25.97
2019-05-07T05:16:33.995Z,25.60
2019-05-07T05:17:49.591Z,24.72
2019-05-07T05:18:45.889Z,24.55
2019-05-07T05:19:52.531Z,23.25
2019-05-07T05:21:15.181Z,24.23
2019-05-07T05:22:37.493Z,23.42
2019-05-07T05:23:52.390Z,23.18
2019-05-07T05:25:22.825Z,23.57
2019-05-07T05:26:27.867Z,24.75
2019-05-07T05:27:32.898Z,24.60
2019-05-07T05:28:37.870Z,25.23
2019-05-07T05:29:43.481Z,24.35
2019-05-07T05:30:52.809Z,24.25
2019-05-07T05:31:57.814Z,24.07
2019-05-07T05:33:04.410Z,24.12
2019-05-07T05:34:09.391Z,25.32
2019-05-07T05:35:14.637Z,24.37
2019-05-07T05:36:22.045Z,24.23
2019-05-07T05:37:27.248Z,24.27
2019-05-07T05:38:33.121Z,24.18
2019-05-07T05:39:38.096Z,24.20
2019-05-07T05:40:43.117Z,23.90
2019-05-07T05:41:51.865Z,23.95
2019-05-07T05:43:03.168Z,23.65
2019-05-07T05:44:22.770Z,24.65
2019-05-07T05:45:42.653Z,24.27
2019-05-07T05:46:47.564Z,23.15
2019-05-07T05:48:04.407Z,24.30
2019-05-07T05:48:59.656Z,24.57
2019-05-07T05:50:05.797Z,23.80
2019-05-07T05:51:31.687Z,24.50
2019-05-07T05:52:44.078Z,24.23
2019-05-07T05:53:53.552Z,24.12
2019-05-07T05:55:09.376Z,24.80
2019-05-07T05:56:25.854Z,24.80
2019-05-07T05:58:04.667Z,24.60
2019-05-07T05:59:25.382Z,24.55
2019-05-07T06:00:37.847Z,24.25
2019-05-07T06:02:03.348Z,24.40
2019-05-07T06:03:24.425Z,23.95
2019-05-07T06:04:52.786Z,24.00
2019-05-07T06:06:12.868Z,24.57
2019-05-07T06:07:25.334Z,23.47
2019-05-07T06:08:55.322Z,24.50
2019-05-07T06:10:08.798Z,23.22
2019-05-07T06:11:38.818Z,24.57
2019-05-07T06:12:49.151Z,23.50
2019-05-07T06:14:27.426Z,23.32
2019-05-07T06:15:49.232Z,23.92
2019-05-07T06:17:13.046Z,24.23
2019-05-07T06:18:35.581Z,23.92
2019-05-07T06:19:46.422Z,24.77
2019-05-07T06:21:09.838Z,24.77
2019-05-07T06:22:42.863Z,23.75
2019-05-07T06:23:53.598Z,23.32
2019-05-07T06:25:02.353Z,23.35
2019-05-07T06:26:07.491Z,24.10
2019-05-07T06:27:12.461Z,22.80
2019-05-07T06:28:17.191Z,24.35
2019-05-07T06:29:23.158Z,23.70
2019-05-07T06:30:27.923Z,22.48
2019-05-07T06:31:33.337Z,23.65
2019-05-07T06:32:38.338Z,24.40
2019-05-07T06:33:43.408Z,23.50
2019-05-07T06:34:48.416Z,23.05
2019-05-07T06:35:52.862Z,24.30
2019-05-07T06:36:57.565Z,22.73
2019-05-07T06:38:04.051Z,22.25
2019-05-07T06:39:23.795Z,22.77
2019-05-07T06:40:47.378Z,21.90
2019-05-07T06:42:09.946Z,22.00
2019-05-07T06:43:25.985Z,22.87
2019-05-07T06:44:32.006Z,22.80
2019-05-07T06:45:42.198Z,22.67
2019-05-07T06:46:47.291Z,22.50
2019-05-07T06:47:52.297Z,23.02
2019-05-07T06:48:56.997Z,21.52
2019-05-07T06:50:03.140Z,23.12
2019-05-07T06:51:07.611Z,22.80
2019-05-07T06:52:12.397Z,21.35
2019-05-07T06:53:17.375Z,20.85
2019-05-07T06:54:22.667Z,21.52
2019-05-07T06:55:27.948Z,21.57
2019-05-07T06:56:32.975Z,21.27
2019-05-07T06:57:38.347Z,22.40
2019-05-07T06:59:04.695Z,22.13
2019-05-07T07:00:28.876Z,21.62
2019-05-07T07:01:57.258Z,19.92
2019-05-07T07:03:12.748Z,20.82
2019-05-07T07:04:35.108Z,20.97
2019-05-07T07:05:59.649Z,20.85
2019-05-07T07:07:37.431Z,21.27
2019-05-07T07:09:12.710Z,21.45
2019-05-07T07:10:39.993Z,20.50
2019-05-07T07:11:53.083Z,20.23
2019-05-07T07:12:58.427Z,21.30
2019-05-07T07:14:03.157Z,22.02
2019-05-07T07:15:07.849Z,21.42
2019-05-07T07:16:13.088Z,21.25
2019-05-07T07:17:17.817Z,20.88
2019-05-07T07:18:23.195Z,21.65
2019-05-07T07:19:28.683Z,21.23
2019-05-07T07:20:33.976Z,21.10
2019-05-07T07:21:39.019Z,20.65
2019-05-07T07:22:44.021Z,20.75
2019-05-07T07:23:49.350Z,20.08
2019-05-07T07:24:54.057Z,20.00
2019-05-07T07:25:59.083Z,19.62
2019-05-07T07:27:04.108Z,18.82
2019-05-07T07:28:08.868Z,19.67
2019-05-07T07:29:15.486Z,19.05
2019-05-07T07:30:42.062Z,19.95
2019-05-07T07:31:52.790Z,19.92
2019-05-07T07:32:58.314Z,21.20
2019-05-07T07:34:04.013Z,19.35
2019-05-07T07:35:10.162Z,20.30
2019-05-07T07:36:15.216Z,19.02
2019-05-07T07:37:42.849Z,19.45
2019-05-07T07:38:47.388Z,19.10
2019-05-07T07:39:54.546Z,19.45
2019-05-07T07:41:23.912Z,19.82
2019-05-07T07:42:28.894Z,18.42
2019-05-07T07:43:33.897Z,17.62
2019-05-07T07:44:38.661Z,18.30
2019-05-07T07:45:43.689Z,17.67
2019-05-07T07:46:48.735Z,18.20
2019-05-07T07:47:53.283Z,17.73
2019-05-07T07:49:09.848Z,17.67
2019-05-07T07:50:05.233Z,18.12
2019-05-07T07:51:10.514Z,18.87
2019-05-07T07:52:15.634Z,17.95
2019-05-07T07:53:22.722Z,17.62
2019-05-07T07:54:27.792Z,17.98
2019-05-07T07:55:46.715Z,19.02
2019-05-07T07:57:21.678Z,18.57
2019-05-07T07:58:41.928Z,18.30
2019-05-07T07:59:52.858Z,18.07
2019-05-07T08:01:14.888Z,19.25
2019-05-07T08:02:27.390Z,19.52
2019-05-07T08:03:33.001Z,18.85
2019-05-07T08:04:38.028Z,20.50
2019-05-07T08:05:43.090Z,20.43
2019-05-07T08:06:52.275Z,19.90
2019-05-07T08:07:56.759Z,19.40
2019-05-07T08:09:02.238Z,19.25
2019-05-07T08:10:07.655Z,19.80
2019-05-07T08:11:12.834Z,19.60
2019-05-07T08:12:17.500Z,19.07
2019-05-07T08:13:23.057Z,19.85
2019-05-07T08:14:27.935Z,20.48
2019-05-07T08:15:33.189Z,19.30
2019-05-07T08:16:38.227Z,19.30
2019-05-07T08:17:43.218Z,19.57
2019-05-07T08:18:47.914Z,20.10
2019-05-07T08:19:52.421Z,20.35
2019-05-07T08:20:56.889Z,20.12
2019-05-07T08:22:02.983Z,19.65
2019-05-07T08:23:07.797Z,19.23
2019-05-07T08:24:12.795Z,19.77
2019-05-07T08:25:17.351Z,18.82
2019-05-07T08:26:22.070Z,19.92
2019-05-07T08:27:26.746Z,20.52
2019-05-07T08:28:32.126Z,18.90
2019-05-07T08:29:37.371Z,18.95
2019-05-07T08:30:43.925Z,16.93
2019-05-07T08:31:55.333Z,17.62
2019-05-07T08:33:03.722Z,17.87
2019-05-07T08:34:15.879Z,18.77
2019-05-07T08:35:32.528Z,17.92
2019-05-07T08:36:37.279Z,18.55
2019-05-07T08:37:42.718Z,17.92
2019-05-07T08:38:52.901Z,18.27
2019-05-07T08:39:57.783Z,17.35
2019-05-07T08:41:03.020Z,17.98
2019-05-07T08:42:08.083Z,19.80
2019-05-07T08:43:12.789Z,18.35
2019-05-07T08:44:22.315Z,18.60
2019-05-07T08:45:44.721Z,17.82
2019-05-07T08:47:03.590Z,17.27
2019-05-07T08:48:32.979Z,17.92
2019-05-07T08:49:40.382Z,18.45
2019-05-07T08:50:46.191Z,17.65
2019-05-07T08:52:03.959Z,17.32
2019-05-07T08:53:08.485Z,17.02
2019-05-07T08:54:13.215Z,16.67
2019-05-07T08:55:18.526Z,17.65
2019-05-07T08:56:23.512Z,18.23
2019-05-07T08:57:28.896Z,18.30
2019-05-07T08:58:33.853Z,16.95
2019-05-07T08:59:38.950Z,16.55
2019-05-07T09:00:44.221Z,16.57
2019-05-07T09:01:48.925Z,16.50
2019-05-07T09:02:53.923Z,17.07
2019-05-07T09:03:58.630Z,16.50
2019-05-07T09:05:03.329Z,16.15
2019-05-07T09:06:08.008Z,16.20
2019-05-07T09:07:13.253Z,14.50
2019-05-07T09:08:17.928Z,15.58
2019-05-07T09:09:22.647Z,16.00
2019-05-07T09:10:27.422Z,14.85
2019-05-07T09:11:32.692Z,16.57
2019-05-07T09:12:37.397Z,16.55
2019-05-07T09:13:42.199Z,16.60
2019-05-07T09:14:47.374Z,16.05
2019-05-07T09:15:52.920Z,16.50
2019-05-07T09:16:57.407Z,16.82
2019-05-07T09:18:02.406Z,17.45
2019-05-07T09:19:07.238Z,17.77
2019-05-07T09:20:12.771Z,16.87
2019-05-07T09:21:17.427Z,17.30
2019-05-07T09:22:23.129Z,16.15
2019-05-07T09:23:28.166Z,17.55
2019-05-07T09:24:33.569Z,18.40
2019-05-07T09:25:47.457Z,18.20
2019-05-07T09:27:22.939Z,18.07
2019-05-07T09:28:32.643Z,17.65
2019-05-07T09:30:05.364Z,17.73
2019-05-07T09:31:18.267Z,17.62
2019-05-07T09:32:32.472Z,17.67
2019-05-07T09:33:43.896Z,17.12
2019-05-07T09:34:48.932Z,16.40
2019-05-07T09:35:55.238Z,16.55
2019-05-07T09:37:02.351Z,17.00
2019-05-07T09:38:07.486Z,16.73
2019-05-07T09:39:12.243Z,15.23
2019-05-07T09:40:17.271Z,14.80
2019-05-07T09:41:28.063Z,16.00
2019-05-07T09:42:33.506Z,17.40
2019-05-07T09:43:38.775Z,16.48
2019-05-07T09:44:44.037Z,15.80
2019-05-07T09:45:49.311Z,15.85
2019-05-07T09:46:54.049Z,15.08
2019-05-07T09:47:58.775Z,14.70
2019-05-07T09:49:03.782Z,14.83
2019-05-07T09:50:09.029Z,13.88
2019-05-07T09:51:14.060Z,14.00
2019-05-07T09:52:19.098Z,13.72
2019-05-07T09:53:24.055Z,15.90
2019-05-07T09:54:28.794Z,14.95
2019-05-07T09:55:34.048Z,16.60
2019-05-07T09:56:39.436Z,15.80
2019-05-07T09:57:44.198Z,15.32
2019-05-07T09:58:48.812Z,16.27
2019-05-07T09:59:53.634Z,16.67
2019-05-07T10:00:58.622Z,17.30
2019-05-07T10:02:03.282Z,16.02
2019-05-07T10:03:08.314Z,16.27
2019-05-07T10:04:13.354Z,17.90
2019-05-07T10:05:18.046Z,17.20
2019-05-07T10:06:23.050Z,18.00
2019-05-07T10:07:28.501Z,17.52
2019-05-07T10:08:33.402Z,19.02
2019-05-07T10:09:38.758Z,18.40
2019-05-07T10:10:45.625Z,18.25
2019-05-07T10:11:57.245Z,19.02
2019-05-07T10:13:12.096Z,18.92
2019-05-07T10:14:17.247Z,17.98
2019-05-07T10:15:22.607Z,17.45
2019-05-07T10:16:39.235Z,17.52
2019-05-07T10:17:54.170Z,18.32
2019-05-07T10:18:59.164Z,17.00
2019-05-07T10:20:17.901Z,17.15
2019-05-07T10:21:12.629Z,17.95
2019-05-07T10:22:17.727Z,18.40
2019-05-07T10:23:23.239Z,18.37
2019-05-07T10:24:28.038Z,18.25
2019-05-07T10:25:38.892Z,16.73
2019-05-07T10:26:43.384Z,17.98
2019-05-07T10:27:48.353Z,18.20
2019-05-07T10:28:53.923Z,18.67
2019-05-07T10:29:59.322Z,17.87
2019-05-07T10:31:04.300Z,17.23
2019-05-07T10:32:09.100Z,18.30
2019-05-07T10:33:13.866Z,17.50
2019-05-07T10:34:18.851Z,17.23
2019-05-07T10:35:23.550Z,17.17
2019-05-07T10:36:28.579Z,18.30
2019-05-07T10:37:33.543Z,18.67
2019-05-07T10:38:38.881Z,17.27
2019-05-07T10:39:43.335Z,17.00
2019-05-07T10:40:48.030Z,16.75
2019-05-07T10:41:53.032Z,15.98
2019-05-07T10:42:57.750Z,16.82
2019-05-07T10:44:02.764Z,16.65
2019-05-07T10:45:35.889Z,16.90
2019-05-07T10:46:58.067Z,17.98
2019-05-07T10:48:27.289Z,16.50
2019-05-07T10:49:54.113Z,15.55
2019-05-07T10:50:59.518Z,15.35
2019-05-07T10:52:04.024Z,15.95
2019-05-07T10:53:09.291Z,15.32
2019-05-07T10:54:14.007Z,14.98
2019-05-07T10:55:19.084Z,15.60
2019-05-07T10:56:23.798Z,14.75
2019-05-07T10:57:29.142Z,14.47
2019-05-07T10:58:34.126Z,15.53
2019-05-07T10:59:38.875Z,15.35
2019-05-07T11:00:43.541Z,15.88
2019-05-07T11:01:57.459Z,14.50
2019-05-07T11:03:02.553Z,14.18
2019-05-07T11:04:07.320Z,14.00
2019-05-07T11:05:13.081Z,13.95
2019-05-07T11:06:17.804Z,15.53
2019-05-07T11:07:22.688Z,14.73
2019-05-07T11:08:27.124Z,14.05
2019-05-07T11:09:32.834Z,13.32
2019-05-07T11:10:37.643Z,13.90
2019-05-07T11:11:42.605Z,14.23
2019-05-07T11:12:47.559Z,14.50
2019-05-07T11:13:55.833Z,14.70
2019-05-07T11:14:59.054Z,15.00
2019-05-07T11:16:07.765Z,15.00
2019-05-07T11:17:27.487Z,14.03
2019-05-07T11:18:39.813Z,14.03
2019-05-07T11:19:44.805Z,14.10
2019-05-07T11:20:51.159Z,15.58
2019-05-07T11:21:55.933Z,13.98
2019-05-07T11:23:02.652Z,15.10
2019-05-07T11:24:07.796Z,15.38
2019-05-07T11:25:12.687Z,15.98
2019-05-07T11:26:17.782Z,14.83
2019-05-07T11:27:23.021Z,14.47
2019-05-07T11:28:28.097Z,15.50
2019-05-07T11:29:36.366Z,15.48
2019-05-07T11:30:39.875Z,16.05
2019-05-07T11:31:44.923Z,15.70
2019-05-07T11:32:52.064Z,14.85
2019-05-07T11:33:57.412Z,14.93
2019-05-07T11:35:03.159Z,14.78
2019-05-07T11:36:07.656Z,13.95
2019-05-07T11:37:12.633Z,14.60
2019-05-07T11:38:21.561Z,13.68
2019-05-07T11:39:24.349Z,13.58
2019-05-07T11:40:29.072Z,12.95
2019-05-07T11:41:47.614Z,13.45
2019-05-07T11:43:22.252Z,12.73
2019-05-07T11:44:29.047Z,12.35
2019-05-07T11:45:59.305Z,12.33
2019-05-07T11:47:28.931Z,11.97
2019-05-07T11:48:36.488Z,11.08
2019-05-07T11:49:58.556Z,12.18
2019-05-07T11:51:15.161Z,11.85
2019-05-07T11:52:28.337Z,12.28
2019-05-07T11:53:33.472Z,12.55
2019-05-07T11:54:38.522Z,10.88
2019-05-07T11:55:43.771Z,9.73
2019-05-07T11:56:48.464Z,11.03
2019-05-07T11:57:53.487Z,10.70
2019-05-07T11:58:59.075Z,9.95
2019-05-07T12:00:03.874Z,10.28
2019-05-07T12:01:13.571Z,10.70
2019-05-07T12:02:18.621Z,10.38
2019-05-07T12:03:23.661Z,10.60
2019-05-07T12:04:28.951Z,10.00
2019-05-07T12:05:34.210Z,9.73
2019-05-07T12:06:39.360Z,10.60
2019-05-07T12:07:44.055Z,9.48
2019-05-07T12:08:51.931Z,9.25
2019-05-07T12:09:56.074Z,8.93
2019-05-07T12:11:02.406Z,9.40
2019-05-07T12:12:07.507Z,9.28
2019-05-07T12:13:12.993Z,8.83
2019-05-07T12:14:28.934Z,9.30
2019-05-07T12:15:24.711Z,9.80
2019-05-07T12:16:32.038Z,8.83
2019-05-07T12:17:36.508Z,9.25
2019-05-07T12:18:43.083Z,9.78
2019-05-07T12:19:48.400Z,8.55
2019-05-07T12:20:54.188Z,9.05
2019-05-07T12:21:59.746Z,9.58
2019-05-07T12:23:04.639Z,9.28
2019-05-07T12:24:09.144Z,8.58
2019-05-07T12:25:13.946Z,10.48
2019-05-07T12:26:18.413Z,10.15
2019-05-07T12:27:23.095Z,9.73
2019-05-07T12:28:28.346Z,9.58
2019-05-07T12:29:33.035Z,10.60
2019-05-07T12:31:06.235Z,10.23
2019-05-07T12:32:24.882Z,10.43
2019-05-07T12:33:52.186Z,9.88
2019-05-07T12:35:02.212Z,10.63
2019-05-07T12:36:07.822Z,10.35
2019-05-07T12:37:12.518Z,8.88
2019-05-07T12:38:17.016Z,8.58
2019-05-07T12:39:22.256Z,9.35
2019-05-07T12:40:26.948Z,9.58
2019-05-07T12:41:33.756Z,9.58
2019-05-07T12:42:38.917Z,10.35
2019-05-07T12:43:43.607Z,10.50
2019-05-07T12:44:49.257Z,10.65
2019-05-07T12:45:54.255Z,11.12
2019-05-07T12:46:58.965Z,10.72
2019-05-07T12:48:03.687Z,11.15
2019-05-07T12:49:08.682Z,10.05
2019-05-07T12:50:14.439Z,9.80
2019-05-07T12:51:31.630Z,10.38
2019-05-07T12:52:38.943Z,9.85
2019-05-07T12:53:47.892Z,10.00
2019-05-07T12:54:56.931Z,11.08
2019-05-07T12:56:02.187Z,10.00
2019-05-07T12:57:07.208Z,10.63
2019-05-07T12:58:12.658Z,10.20
2019-05-07T12:59:18.165Z,10.03
2019-05-07T13:00:42.533Z,10.25
2019-05-07T13:02:16.680Z,9.78
2019-05-07T13:03:34.595Z,9.23
2019-05-07T13:04:41.812Z,9.40
2019-05-07T13:05:46.869Z,9.73
2019-05-07T13:07:15.276Z,9.95
2019-05-07T13:08:22.832Z,9.25
2019-05-07T13:09:27.315Z,9.88
2019-05-07T13:10:33.607Z,9.00
2019-05-07T13:11:38.548Z,9.73
2019-05-07T13:12:43.815Z,9.68
2019-05-07T13:13:48.524Z,9.83
2019-05-07T13:14:53.228Z,9.45
2019-05-07T13:15:57.924Z,10.30
2019-05-07T13:17:03.190Z,9.38
2019-05-07T13:18:07.903Z,10.65
2019-05-07T13:19:13.268Z,9.38
2019-05-07T13:20:18.116Z,10.18
2019-05-07T13:21:23.398Z,10.68
2019-05-07T13:22:32.605Z,10.05
2019-05-07T13:23:37.412Z,10.45
2019-05-07T13:24:42.711Z,10.80
2019-05-07T13:25:47.753Z,8.93
2019-05-07T13:26:52.726Z,9.95
2019-05-07T13:27:57.987Z,9.90
2019-05-07T13:29:03.068Z,10.48
2019-05-07T13:30:07.918Z,9.88
2019-05-07T13:31:12.681Z,8.60
2019-05-07T13:32:18.162Z,9.95
2019-05-07T13:33:24.198Z,9.63
2019-05-07T13:34:29.258Z,9.40
2019-05-07T13:35:35.140Z,9.23
2019-05-07T13:36:43.265Z,9.83
2019-05-07T13:37:55.475Z,9.35
2019-05-07T13:39:14.156Z,9.95
2019-05-07T13:40:25.044Z,9.30
2019-05-07T13:41:48.873Z,9.70
2019-05-07T13:43:12.008Z,9.83
2019-05-07T13:44:41.768Z,9.38
2019-05-07T13:46:02.904Z,8.10
2019-05-07T13:47:31.032Z,8.20
2019-05-07T13:48:37.582Z,7.90
2019-05-07T13:49:42.857Z,7.72
2019-05-07T13:50:47.958Z,8.25
2019-05-07T13:52:02.799Z,8.38
2019-05-07T13:52:59.218Z,8.50
2019-05-07T13:54:04.137Z,8.48
2019-05-07T13:55:09.044Z,8.20
2019-05-07T13:56:13.493Z,8.75
2019-05-07T13:57:18.165Z,8.35
2019-05-07T13:58:23.474Z,8.35
2019-05-07T13:59:28.158Z,8.70
2019-05-07T14:00:38.222Z,8.28
2019-05-07T14:02:04.496Z,8.85
2019-05-07T14:03:09.299Z,8.40
2019-05-07T14:04:14.672Z,8.70
2019-05-07T14:05:21.657Z,7.55
2019-05-07T14:06:42.912Z,8.45
2019-05-07T14:07:48.232Z,8.35
2019-05-07T14:08:52.919Z,7.72
2019-05-07T14:09:58.190Z,8.28
2019-05-07T14:11:03.009Z,8.88
2019-05-07T14:12:07.759Z,8.58
2019-05-07T14:13:17.123Z,8.90
2019-05-07T14:14:19.089Z,8.50
2019-05-07T14:15:23.784Z,8.48
2019-05-07T14:16:28.310Z,9.18
2019-05-07T14:17:33.418Z,8.65
2019-05-07T14:18:39.813Z,8.53
2019-05-07T14:19:45.077Z,8.15
2019-05-07T14:20:50.590Z,9.45
2019-05-07T14:21:55.593Z,9.03
2019-05-07T14:23:00.411Z,8.28
2019-05-07T14:24:04.868Z,9.00
2019-05-07T14:25:10.609Z,9.73
2019-05-07T14:26:15.587Z,8.30
2019-05-07T14:27:20.855Z,8.45
2019-05-07T14:28:25.818Z,8.60
2019-05-07T14:29:32.016Z,8.85
2019-05-07T14:30:36.846Z,8.20
2019-05-07T14:31:42.711Z,8.43
2019-05-07T14:32:54.889Z,8.60
2019-05-07T14:34:14.477Z,7.83
2019-05-07T14:35:44.259Z,8.38
2019-05-07T14:37:07.831Z,8.28
2019-05-07T14:38:23.161Z,8.53
2019-05-07T14:39:27.986Z,8.40
2019-05-07T14:40:32.992Z,8.28
2019-05-07T14:41:38.098Z,8.23
2019-05-07T14:42:47.451Z,7.75
2019-05-07T14:44:06.894Z,7.85
2019-05-07T14:45:11.778Z,8.70
2019-05-07T14:46:16.834Z,8.93
2019-05-07T14:47:22.374Z,8.83
2019-05-07T14:48:27.205Z,8.68